sensor_id;sensor_type;location;lat;lon;timestamp;pressure;altitude;pressure_sealevel;temperature;humidity
54592;BME280;40488;48.558;18.150;2022-09-06T00:00:30;100133.81;;;16.82;77.11
54592;BME280;40488;48.558;18.150;2022-09-06T00:03:02;100137.28;;;16.81;76.97
54592;BME280;40488;48.558;18.150;2022-09-06T00:05:32;100136.47;;;16.79;77.06
54592;BME280;40488;48.558;18.150;2022-09-06T00:08:02;100133.00;;;16.80;77.31
54592;BME280;40488;48.558;18.150;2022-09-06T00:10:32;100133.00;;;16.80;77.40
54592;BME280;40488;48.558;18.150;2022-09-06T00:13:02;100119.31;;;16.77;77.52
54592;BME280;40488;48.558;18.150;2022-09-06T00:15:33;100130.41;;;16.82;77.19
54592;BME280;40488;48.558;18.150;2022-09-06T00:18:05;100126.16;;;16.79;77.31
54592;BME280;40488;48.558;18.150;2022-09-06T00:20:37;100126.16;;;16.79;77.21
54592;BME280;40488;48.558;18.150;2022-09-06T00:23:07;100121.91;;;16.75;77.43
54592;BME280;40488;48.558;18.150;2022-09-06T00:25:36;100114.25;;;16.72;77.36
54592;BME280;40488;48.558;18.150;2022-09-06T00:28:05;100123.72;;;16.70;77.48
54592;BME280;40488;48.558;18.150;2022-09-06T00:30:34;100126.25;;;16.73;77.78
54592;BME280;40488;48.558;18.150;2022-09-06T00:33:04;100124.63;;;16.69;77.55
54592;BME280;40488;48.558;18.150;2022-09-06T00:35:32;100127.25;;;16.66;77.50
54592;BME280;40488;48.558;18.150;2022-09-06T00:38:01;100122.13;;;16.63;77.82
54592;BME280;40488;48.558;18.150;2022-09-06T00:40:31;100117.94;;;16.59;77.86
54592;BME280;40488;48.558;18.150;2022-09-06T00:43:02;100129.09;;;16.59;77.47
54592;BME280;40488;48.558;18.150;2022-09-06T00:45:31;100128.25;;;16.59;77.64
54592;BME280;40488;48.558;18.150;2022-09-06T00:48:01;100124.78;;;16.60;77.60
54592;BME280;40488;48.558;18.150;2022-09-06T00:50:34;100125.63;;;16.60;78.11
54592;BME280;40488;48.558;18.150;2022-09-06T00:53:03;100123.97;;;16.58;77.73
54592;BME280;40488;48.558;18.150;2022-09-06T00:55:32;100119.66;;;16.60;77.97
54592;BME280;40488;48.558;18.150;2022-09-06T00:58:01;100123.91;;;16.61;77.77
54592;BME280;40488;48.558;18.150;2022-09-06T01:00:30;100117.09;;;16.57;77.36
54592;BME280;40488;48.558;18.150;2022-09-06T01:02:59;100111.19;;;16.52;77.68
54592;BME280;40488;48.558;18.150;2022-09-06T01:05:34;100121.50;;;16.52;77.82
54592;BME280;40488;48.558;18.150;2022-09-06T01:08:37;100105.22;;;16.47;77.76
54592;BME280;40488;48.558;18.150;2022-09-06T01:11:23;100109.56;;;16.45;77.61
54592;BME280;40488;48.558;18.150;2022-09-06T01:14:06;100114.66;;;16.48;78.08
54592;BME280;40488;48.558;18.150;2022-09-06T01:16:42;100106.03;;;16.50;77.59
54592;BME280;40488;48.558;18.150;2022-09-06T01:22:30;100109.66;;;16.39;78.04
54592;BME280;40488;48.558;18.150;2022-09-06T01:25:16;100114.75;;;16.42;77.73
54592;BME280;40488;48.558;18.150;2022-09-06T01:30:52;100106.25;;;16.37;77.85
54592;BME280;40488;48.558;18.150;2022-09-06T01:33:31;100109.78;;;16.33;77.83
54592;BME280;40488;48.558;18.150;2022-09-06T01:36:03;100102.91;;;16.32;78.07
54592;BME280;40488;48.558;18.150;2022-09-06T01:38:34;100110.63;;;16.33;78.11
54592;BME280;40488;48.558;18.150;2022-09-06T01:41:04;100101.22;;;16.31;78.04
54592;BME280;40488;48.558;18.150;2022-09-06T01:43:37;100115.03;;;16.27;77.80
54592;BME280;40488;48.558;18.150;2022-09-06T01:46:14;100105.59;;;16.26;78.05
54592;BME280;40488;48.558;18.150;2022-09-06T01:49:10;100103.88;;;16.25;77.96
54592;BME280;40488;48.558;18.150;2022-09-06T01:51:55;100103.94;;;16.23;78.27
54592;BME280;40488;48.558;18.150;2022-09-06T01:54:30;100096.25;;;16.22;77.83
54592;BME280;40488;48.558;18.150;2022-09-06T01:57:11;100100.53;;;16.20;77.83
54592;BME280;40488;48.558;18.150;2022-09-06T02:00:01;100098.91;;;16.16;77.67
54592;BME280;40488;48.558;18.150;2022-09-06T02:02:49;100098.97;;;16.11;78.26
54592;BME280;40488;48.558;18.150;2022-09-06T02:05:24;100105.84;;;16.12;78.07
54592;BME280;40488;48.558;18.150;2022-09-06T02:07:59;100094.69;;;16.12;78.12
54592;BME280;40488;48.558;18.150;2022-09-06T02:10:32;100093.78;;;16.13;78.20
54592;BME280;40488;48.558;18.150;2022-09-06T02:13:06;100096.31;;;16.16;78.35
54592;BME280;40488;48.558;18.150;2022-09-06T02:15:41;100102.28;;;16.18;78.17
54592;BME280;40488;48.558;18.150;2022-09-06T02:18:14;100100.63;;;16.15;78.06
54592;BME280;40488;48.558;18.150;2022-09-06T02:20:47;100104.16;;;16.09;78.06
54592;BME280;40488;48.558;18.150;2022-09-06T02:23:20;100105.97;;;16.03;78.05
54592;BME280;40488;48.558;18.150;2022-09-06T02:25:54;100102.66;;;15.96;78.59
54592;BME280;40488;48.558;18.150;2022-09-06T02:28:25;100100.06;;;15.96;78.57
54592;BME280;40488;48.558;18.150;2022-09-06T02:30:57;100099.22;;;15.96;78.36
54592;BME280;40488;48.558;18.150;2022-09-06T02:33:30;100100.06;;;15.96;78.86
54592;BME280;40488;48.558;18.150;2022-09-06T02:36:02;100101.81;;;15.94;78.92
54592;BME280;40488;48.558;18.150;2022-09-06T02:38:34;100115.63;;;15.90;78.49
54592;BME280;40488;48.558;18.150;2022-09-06T02:41:05;100101.00;;;15.91;79.01
54592;BME280;40488;48.558;18.150;2022-09-06T02:43:34;100100.19;;;15.90;78.77
54592;BME280;40488;48.558;18.150;2022-09-06T02:46:03;100107.88;;;15.92;78.90
54592;BME280;40488;48.558;18.150;2022-09-06T02:48:33;100100.16;;;15.92;78.66
54592;BME280;40488;48.558;18.150;2022-09-06T02:51:02;100102.69;;;15.95;78.96
54592;BME280;40488;48.558;18.150;2022-09-06T02:53:31;100096.69;;;15.94;78.78
54592;BME280;40488;48.558;18.150;2022-09-06T02:56:01;100088.91;;;15.96;79.10
54592;BME280;40488;48.558;18.150;2022-09-06T02:58:29;100096.63;;;15.97;79.32
54592;BME280;40488;48.558;18.150;2022-09-06T03:00:58;100089.75;;;15.99;78.79
54592;BME280;40488;48.558;18.150;2022-09-06T03:03:27;100087.13;;;16.01;78.94
54592;BME280;40488;48.558;18.150;2022-09-06T03:05:57;100093.13;;;16.01;78.95
54592;BME280;40488;48.558;18.150;2022-09-06T03:08:26;100086.25;;;16.00;78.72
54592;BME280;40488;48.558;18.150;2022-09-06T03:11:00;100079.44;;;15.99;79.04
54592;BME280;40488;48.558;18.150;2022-09-06T03:13:29;100071.78;;;15.95;79.05
54592;BME280;40488;48.558;18.150;2022-09-06T03:15:58;100080.22;;;16.03;78.73
54592;BME280;40488;48.558;18.150;2022-09-06T03:18:28;100070.00;;;16.00;79.21
54592;BME280;40488;48.558;18.150;2022-09-06T03:20:59;100084.59;;;15.99;79.06
54592;BME280;40488;48.558;18.150;2022-09-06T03:23:28;100075.19;;;15.97;79.41
54592;BME280;40488;48.558;18.150;2022-09-06T03:25:57;100074.38;;;15.95;79.25
54592;BME280;40488;48.558;18.150;2022-09-06T03:28:26;100075.22;;;15.95;79.20
54592;BME280;40488;48.558;18.150;2022-09-06T03:30:55;100081.19;;;15.96;78.92
54592;BME280;40488;48.558;18.150;2022-09-06T03:33:24;100077.78;;;15.95;79.13
54592;BME280;40488;48.558;18.150;2022-09-06T03:35:55;100071.78;;;15.95;79.11
54592;BME280;40488;48.558;18.150;2022-09-06T03:38:27;100067.50;;;15.95;78.86
54592;BME280;40488;48.558;18.150;2022-09-06T03:40:56;100065.78;;;15.94;79.40
54592;BME280;40488;48.558;18.150;2022-09-06T03:43:27;100060.63;;;15.94;79.12
54592;BME280;40488;48.558;18.150;2022-09-06T03:45:56;100056.34;;;15.93;79.18
54592;BME280;40488;48.558;18.150;2022-09-06T03:48:27;100055.66;;;15.85;78.96
54592;BME280;40488;48.558;18.150;2022-09-06T03:50:57;100059.03;;;15.87;79.49
54592;BME280;40488;48.558;18.150;2022-09-06T03:53:28;100059.91;;;15.86;79.16
54592;BME280;40488;48.558;18.150;2022-09-06T03:55:57;100059.94;;;15.85;79.09
54592;BME280;40488;48.558;18.150;2022-09-06T03:58:29;100064.22;;;15.84;79.50
54592;BME280;40488;48.558;18.150;2022-09-06T04:01:00;100061.66;;;15.84;79.66
54592;BME280;40488;48.558;18.150;2022-09-06T04:03:31;100052.25;;;15.83;79.31
54592;BME280;40488;48.558;18.150;2022-09-06T04:06:00;100060.78;;;15.85;79.61
54592;BME280;40488;48.558;18.150;2022-09-06T04:08:31;100051.34;;;15.84;79.31
54592;BME280;40488;48.558;18.150;2022-09-06T04:11:00;100058.22;;;15.85;79.60
54592;BME280;40488;48.558;18.150;2022-09-06T04:13:31;100059.06;;;15.84;79.13
54592;BME280;40488;48.558;18.150;2022-09-06T04:16:01;100053.97;;;15.81;79.42
54592;BME280;40488;48.558;18.150;2022-09-06T04:18:30;100059.19;;;15.78;79.40
54592;BME280;40488;48.558;18.150;2022-09-06T04:20:59;100059.19;;;15.78;79.40
54592;BME280;40488;48.558;18.150;2022-09-06T04:23:28;100062.59;;;15.79;79.23
54592;BME280;40488;48.558;18.150;2022-09-06T04:25:58;100056.63;;;15.78;79.25
54592;BME280;40488;48.558;18.150;2022-09-06T04:28:27;100059.13;;;15.81;79.15
54592;BME280;40488;48.558;18.150;2022-09-06T04:30:58;100065.97;;;15.82;79.61
54592;BME280;40488;48.558;18.150;2022-09-06T04:33:32;100069.38;;;15.84;79.33
54592;BME280;40488;48.558;18.150;2022-09-06T04:36:03;100063.34;;;15.87;79.40
54592;BME280;40488;48.558;18.150;2022-09-06T04:38:35;100069.28;;;15.90;79.41
54592;BME280;40488;48.558;18.150;2022-09-06T04:41:06;100060.78;;;15.85;79.16
54592;BME280;40488;48.558;18.150;2022-09-06T04:43:35;100070.06;;;15.95;79.51
54592;BME280;40488;48.558;18.150;2022-09-06T04:46:08;100079.41;;;16.02;78.90
54592;BME280;40488;48.558;18.150;2022-09-06T04:48:38;100082.78;;;16.04;78.99
54592;BME280;40488;48.558;18.150;2022-09-06T04:51:07;100068.13;;;16.09;78.82
54592;BME280;40488;48.558;18.150;2022-09-06T04:53:36;100068.88;;;16.15;78.83
54592;BME280;40488;48.558;18.150;2022-09-06T04:56:06;100070.47;;;16.22;78.81
54592;BME280;40488;48.558;18.150;2022-09-06T04:58:34;100064.34;;;16.29;78.70
54592;BME280;40488;48.558;18.150;2022-09-06T05:01:03;100057.38;;;16.34;78.81
54592;BME280;40488;48.558;18.150;2022-09-06T05:03:32;100065.81;;;16.43;78.71
54592;BME280;40488;48.558;18.150;2022-09-06T05:06:06;100069.09;;;16.51;78.67
54592;BME280;40488;48.558;18.150;2022-09-06T05:08:36;100069.09;;;16.53;78.85
54592;BME280;40488;48.558;18.150;2022-09-06T05:11:08;100067.19;;;16.62;78.69
54592;BME280;40488;48.558;18.150;2022-09-06T05:13:37;100070.53;;;16.67;78.45
54592;BME280;40488;48.558;18.150;2022-09-06T05:16:06;100066.09;;;16.74;78.32
54592;BME280;40488;48.558;18.150;2022-09-06T05:18:36;100071.13;;;16.80;78.44
54592;BME280;40488;48.558;18.150;2022-09-06T05:21:05;100072.75;;;16.86;78.57
54592;BME280;40488;48.558;18.150;2022-09-06T05:23:34;100062.28;;;16.92;78.20
54592;BME280;40488;48.558;18.150;2022-09-06T05:26:03;100069.97;;;16.96;77.86
54592;BME280;40488;48.558;18.150;2022-09-06T05:28:33;100068.94;;;17.03;77.60
54592;BME280;40488;48.558;18.150;2022-09-06T05:31:07;100067.13;;;17.08;77.72
54592;BME280;40488;48.558;18.150;2022-09-06T05:33:37;100064.25;;;17.20;77.21
54592;BME280;40488;48.558;18.150;2022-09-06T05:36:06;100064.09;;;17.29;76.94
54592;BME280;40488;48.558;18.150;2022-09-06T05:38:35;100059.56;;;17.37;76.37
54592;BME280;40488;48.558;18.150;2022-09-06T05:41:04;100062.91;;;17.42;76.06
54592;BME280;40488;48.558;18.150;2022-09-06T05:43:34;100062.78;;;17.49;75.77
54592;BME280;40488;48.558;18.150;2022-09-06T05:46:03;100066.97;;;17.56;75.30
54592;BME280;40488;48.558;18.150;2022-09-06T05:48:32;100067.78;;;17.58;74.70
54592;BME280;40488;48.558;18.150;2022-09-06T05:51:04;100064.16;;;17.65;74.50
54592;BME280;40488;48.558;18.150;2022-09-06T05:53:34;100062.22;;;17.74;74.41
54592;BME280;40488;48.558;18.150;2022-09-06T05:56:04;100068.81;;;17.86;73.93
54592;BME280;40488;48.558;18.150;2022-09-06T05:58:34;100060.81;;;17.96;73.85
54592;BME280;40488;48.558;18.150;2022-09-06T06:01:06;100056.28;;;18.06;73.17
54592;BME280;40488;48.558;18.150;2022-09-06T06:03:36;100055.97;;;18.18;72.90
54592;BME280;40488;48.558;18.150;2022-09-06T06:06:05;100053.88;;;18.32;72.83
54592;BME280;40488;48.558;18.150;2022-09-06T06:08:34;100058.78;;;18.41;72.37
54592;BME280;40488;48.558;18.150;2022-09-06T06:11:03;100068.91;;;18.50;72.02
54592;BME280;40488;48.558;18.150;2022-09-06T06:13:32;100072.22;;;18.55;71.76
54592;BME280;40488;48.558;18.150;2022-09-06T06:16:08;100066.97;;;18.58;71.58
54592;BME280;40488;48.558;18.150;2022-09-06T06:18:38;100063.50;;;18.59;71.57
54592;BME280;40488;48.558;18.150;2022-09-06T06:21:11;100071.88;;;18.67;71.19
54592;BME280;40488;48.558;18.150;2022-09-06T06:23:41;100072.69;;;18.69;71.24
54592;BME280;40488;48.558;18.150;2022-09-06T06:26:11;100065.78;;;18.70;71.43
54592;BME280;40488;48.558;18.150;2022-09-06T06:28:40;100063.06;;;18.74;71.03
54592;BME280;40488;48.558;18.150;2022-09-06T06:31:11;100062.22;;;18.74;71.06
54592;BME280;40488;48.558;18.150;2022-09-06T06:33:41;100060.31;;;18.81;71.10
54592;BME280;40488;48.558;18.150;2022-09-06T06:36:18;100069.25;;;19.00;71.01
54592;BME280;40488;48.558;18.150;2022-09-06T06:38:50;100073.00;;;19.19;70.57
54592;BME280;40488;48.558;18.150;2022-09-06T06:41:21;100073.53;;;19.30;70.20
54592;BME280;40488;48.558;18.150;2022-09-06T06:43:51;100077.44;;;19.45;69.90
54592;BME280;40488;48.558;18.150;2022-09-06T06:46:23;100079.78;;;19.52;69.70
54592;BME280;40488;48.558;18.150;2022-09-06T06:48:53;100082.88;;;19.63;69.40
54592;BME280;40488;48.558;18.150;2022-09-06T06:51:23;100075.44;;;19.80;69.16
54592;BME280;40488;48.558;18.150;2022-09-06T06:53:53;100081.00;;;19.96;68.62
54592;BME280;40488;48.558;18.150;2022-09-06T06:56:24;100081.41;;;20.08;68.38
54592;BME280;40488;48.558;18.150;2022-09-06T06:58:56;100081.00;;;20.21;68.39
54592;BME280;40488;48.558;18.150;2022-09-06T07:01:28;100087.41;;;20.37;68.06
54592;BME280;40488;48.558;18.150;2022-09-06T07:03:57;100090.16;;;20.57;67.54
54592;BME280;40488;48.558;18.150;2022-09-06T07:06:26;100084.38;;;20.73;67.08
54592;BME280;40488;48.558;18.150;2022-09-06T07:09:15;100086.16;;;20.96;66.46
54592;BME280;40488;48.558;18.150;2022-09-06T07:11:45;100080.66;;;21.05;65.42
54592;BME280;40488;48.558;18.150;2022-09-06T07:14:14;100086.41;;;21.13;64.96
54592;BME280;40488;48.558;18.150;2022-09-06T07:16:45;100076.13;;;21.10;64.43
54592;BME280;40488;48.558;18.150;2022-09-06T07:19:14;100084.81;;;21.09;64.34
54592;BME280;40488;48.558;18.150;2022-09-06T07:22:02;100081.34;;;21.10;64.69
54592;BME280;40488;48.558;18.150;2022-09-06T07:24:33;100083.66;;;21.18;64.45
54592;BME280;40488;48.558;18.150;2022-09-06T07:27:01;100086.19;;;21.19;63.58
54592;BME280;40488;48.558;18.150;2022-09-06T07:29:50;100085.81;;;21.28;63.82
54592;BME280;40488;48.558;18.150;2022-09-06T07:32:20;100083.00;;;21.34;63.24
54592;BME280;40488;48.558;18.150;2022-09-06T07:34:49;100084.69;;;21.35;63.52
54592;BME280;40488;48.558;18.150;2022-09-06T07:37:18;100081.88;;;21.42;63.37
54592;BME280;40488;48.558;18.150;2022-09-06T07:39:47;100087.16;;;21.62;63.16
54592;BME280;40488;48.558;18.150;2022-09-06T07:42:18;100086.72;;;21.94;62.63
54592;BME280;40488;48.558;18.150;2022-09-06T07:44:46;100085.66;;;22.20;61.99
54592;BME280;40488;48.558;18.150;2022-09-06T07:47:15;100076.50;;;22.31;61.05
54592;BME280;40488;48.558;18.150;2022-09-06T07:50:06;100069.47;;;22.33;60.79
54592;BME280;40488;48.558;18.150;2022-09-06T07:52:55;100075.00;;;22.26;60.26
54592;BME280;40488;48.558;18.150;2022-09-06T07:55:43;100069.47;;;22.13;59.99
54592;BME280;40488;48.558;18.150;2022-09-06T07:58:12;100068.94;;;22.05;59.83
54592;BME280;40488;48.558;18.150;2022-09-06T08:00:41;100071.78;;;21.99;60.20
54592;BME280;40488;48.558;18.150;2022-09-06T08:03:10;100067.63;;;21.95;60.16
54592;BME280;40488;48.558;18.150;2022-09-06T08:05:40;100066.91;;;21.91;60.26
54592;BME280;40488;48.558;18.150;2022-09-06T08:08:29;100064.31;;;21.91;60.39
54592;BME280;40488;48.558;18.150;2022-09-06T08:11:18;100069.50;;;21.91;60.16
54592;BME280;40488;48.558;18.150;2022-09-06T08:13:51;100071.25;;;21.91;59.95
54592;BME280;40488;48.558;18.150;2022-09-06T08:16:22;100072.09;;;21.91;60.26
54592;BME280;40488;48.558;18.150;2022-09-06T08:18:53;100071.25;;;21.91;60.36
54592;BME280;40488;48.558;18.150;2022-09-06T08:21:26;100072.28;;;21.87;60.45
54592;BME280;40488;48.558;18.150;2022-09-06T08:23:57;100061.31;;;21.79;61.41
54592;BME280;40488;48.558;18.150;2022-09-06T08:26:27;100067.44;;;21.78;61.04
54592;BME280;40488;48.558;18.150;2022-09-06T08:28:58;100072.75;;;21.75;61.06
54592;BME280;40488;48.558;18.150;2022-09-06T08:31:28;100081.47;;;21.74;60.97
54592;BME280;40488;48.558;18.150;2022-09-06T08:33:59;100071.97;;;21.73;61.78
54592;BME280;40488;48.558;18.150;2022-09-06T08:36:30;100060.91;;;21.68;62.59
54592;BME280;40488;48.558;18.150;2022-09-06T08:39:01;100065.22;;;21.69;61.56
54592;BME280;40488;48.558;18.150;2022-09-06T08:41:35;100070.41;;;21.69;61.54
54592;BME280;40488;48.558;18.150;2022-09-06T08:44:07;100066.03;;;21.69;63.69
54592;BME280;40488;48.558;18.150;2022-09-06T08:46:59;100073.19;;;21.64;65.51
54592;BME280;40488;48.558;18.150;2022-09-06T08:49:30;100066.28;;;21.63;65.78
54592;BME280;40488;48.558;18.150;2022-09-06T08:52:16;100073.22;;;21.63;65.47
54592;BME280;40488;48.558;18.150;2022-09-06T08:54:55;100073.13;;;21.66;64.56
54592;BME280;40488;48.558;18.150;2022-09-06T08:57:42;100064.34;;;21.68;64.33
54592;BME280;40488;48.558;18.150;2022-09-06T09:00:13;100060.00;;;21.69;65.30
54592;BME280;40488;48.558;18.150;2022-09-06T09:02:44;100054.94;;;21.66;65.83
54592;BME280;40488;48.558;18.150;2022-09-06T09:05:25;100052.41;;;21.64;66.42
54592;BME280;40488;48.558;18.150;2022-09-06T09:08:06;100054.94;;;21.66;66.52
54592;BME280;40488;48.558;18.150;2022-09-06T09:10:41;100053.13;;;21.68;66.42
54592;BME280;40488;48.558;18.150;2022-09-06T09:13:21;100045.44;;;21.65;66.22
54592;BME280;40488;48.558;18.150;2022-09-06T09:15:53;100054.81;;;21.69;66.53
54592;BME280;40488;48.558;18.150;2022-09-06T09:18:24;100042.97;;;21.62;66.29
54592;BME280;40488;48.558;18.150;2022-09-06T09:20:54;100044.75;;;21.60;66.14
54592;BME280;40488;48.558;18.150;2022-09-06T09:23:26;100047.53;;;21.55;66.51
54592;BME280;40488;48.558;18.150;2022-09-06T09:26:01;100043.47;;;21.50;66.56
54592;BME280;40488;48.558;18.150;2022-09-06T09:28:30;100048.88;;;21.44;66.93
54592;BME280;40488;48.558;18.150;2022-09-06T09:30:59;100046.56;;;21.36;67.23
54592;BME280;40488;48.558;18.150;2022-09-06T09:33:29;100041.75;;;21.27;68.09
54592;BME280;40488;48.558;18.150;2022-09-06T09:36:04;100053.66;;;21.09;69.48
54592;BME280;40488;48.558;18.150;2022-09-06T09:38:40;100056.84;;;20.93;70.38
54592;BME280;40488;48.558;18.150;2022-09-06T09:41:24;100070.50;;;20.75;71.21
54592;BME280;40488;48.558;18.150;2022-09-06T09:43:56;100073.81;;;20.55;72.00
54592;BME280;40488;48.558;18.150;2022-09-06T09:46:32;100071.88;;;20.37;73.03
54592;BME280;40488;48.558;18.150;2022-09-06T09:49:06;100074.09;;;20.23;74.09
54592;BME280;40488;48.558;18.150;2022-09-06T09:51:38;100070.22;;;20.08;74.90
54592;BME280;40488;48.558;18.150;2022-09-06T09:54:12;100054.31;;;19.92;76.32
54592;BME280;40488;48.558;18.150;2022-09-06T09:56:46;100055.66;;;19.78;77.45
54592;BME280;40488;48.558;18.150;2022-09-06T09:59:20;100043.09;;;19.66;78.35
54592;BME280;40488;48.558;18.150;2022-09-06T10:01:53;100046.03;;;19.55;78.77
54592;BME280;40488;48.558;18.150;2022-09-06T10:04:28;100059.94;;;19.53;79.59
54592;BME280;40488;48.558;18.150;2022-09-06T10:07:14;100066.34;;;19.41;80.18
54592;BME280;40488;48.558;18.150;2022-09-06T10:09:47;100063.38;;;19.24;80.61
54592;BME280;40488;48.558;18.150;2022-09-06T10:12:18;100062.47;;;19.25;81.04
54592;BME280;40488;48.558;18.150;2022-09-06T10:14:56;100060.81;;;19.22;81.78
54592;BME280;40488;48.558;18.150;2022-09-06T10:17:33;100065.13;;;19.22;82.33
54592;BME280;40488;48.558;18.150;2022-09-06T10:20:04;100070.19;;;19.26;82.65
54592;BME280;40488;48.558;18.150;2022-09-06T10:22:46;100074.16;;;19.09;82.75
54592;BME280;40488;48.558;18.150;2022-09-06T10:25:40;100069.59;;;18.88;83.18
54592;BME280;40488;48.558;18.150;2022-09-06T10:28:27;100070.56;;;18.84;83.70
54592;BME280;40488;48.558;18.150;2022-09-06T10:34:00;100078.97;;;18.92;84.45
54592;BME280;40488;48.558;18.150;2022-09-06T10:36:33;100079.97;;;18.88;84.39
54592;BME280;40488;48.558;18.150;2022-09-06T10:39:07;100081.63;;;18.89;84.75
54592;BME280;40488;48.558;18.150;2022-09-06T10:42:04;100078.25;;;18.87;84.98
54592;BME280;40488;48.558;18.150;2022-09-06T10:44:53;100073.41;;;18.74;85.27
54592;BME280;40488;48.558;18.150;2022-09-06T10:47:30;100076.97;;;18.70;85.64
54592;BME280;40488;48.558;18.150;2022-09-06T10:50:00;100071.28;;;18.59;86.00
54592;BME280;40488;48.558;18.150;2022-09-06T10:52:38;100061.88;;;18.55;86.23
54592;BME280;40488;48.558;18.150;2022-09-06T10:55:12;100058.56;;;18.50;86.72
54592;BME280;40488;48.558;18.150;2022-09-06T10:57:47;100043.06;;;18.50;86.81
54592;BME280;40488;48.558;18.150;2022-09-06T11:00:41;100036.03;;;18.55;87.04
54592;BME280;40488;48.558;18.150;2022-09-06T11:03:19;100034.00;;;18.66;87.13
54592;BME280;40488;48.558;18.150;2022-09-06T11:06:12;100030.34;;;18.73;87.19
54592;BME280;40488;48.558;18.150;2022-09-06T11:08:48;100034.13;;;18.91;87.30
54592;BME280;40488;48.558;18.150;2022-09-06T11:11:29;100038.88;;;19.06;87.32
54592;BME280;40488;48.558;18.150;2022-09-06T11:14:08;100037.06;;;19.10;86.90
54592;BME280;40488;48.558;18.150;2022-09-06T11:16:44;100025.72;;;19.14;86.80
54592;BME280;40488;48.558;18.150;2022-09-06T11:19:19;100022.50;;;19.06;86.41
54592;BME280;40488;48.558;18.150;2022-09-06T11:25:15;100022.84;;;19.23;86.13
54592;BME280;40488;48.558;18.150;2022-09-06T11:27:52;100016.59;;;19.30;85.99
54592;BME280;40488;48.558;18.150;2022-09-06T11:30:26;99981.50;;;19.20;85.97
54592;BME280;40488;48.558;18.150;2022-09-06T11:33:11;100017.66;;;19.52;85.85
54592;BME280;40488;48.558;18.150;2022-09-06T11:35:41;100005.59;;;19.51;85.60
54592;BME280;40488;48.558;18.150;2022-09-06T11:38:21;100013.03;;;19.62;85.45
54592;BME280;40488;48.558;18.150;2022-09-06T11:40:56;100009.44;;;19.66;85.20
54592;BME280;40488;48.558;18.150;2022-09-06T11:43:42;100008.44;;;19.70;84.85
54592;BME280;40488;48.558;18.150;2022-09-06T11:49:34;99995.19;;;19.79;84.99
54592;BME280;40488;48.558;18.150;2022-09-06T11:54:58;99999.22;;;19.87;85.68
54592;BME280;40488;48.558;18.150;2022-09-06T11:57:27;99999.03;;;19.92;85.92
54592;BME280;40488;48.558;18.150;2022-09-06T11:59:58;100001.44;;;19.98;86.18
54592;BME280;40488;48.558;18.150;2022-09-06T12:02:34;100010.00;;;20.00;86.33
54592;BME280;40488;48.558;18.150;2022-09-06T12:05:14;100000.38;;;20.03;86.42
54592;BME280;40488;48.558;18.150;2022-09-06T12:16:04;100002.31;;;19.98;85.57
54592;BME280;40488;48.558;18.150;2022-09-06T12:21:43;100005.56;;;20.03;85.04
54592;BME280;40488;48.558;18.150;2022-09-06T12:27:08;100003.78;;;20.05;84.57
54592;BME280;40488;48.558;18.150;2022-09-06T12:29:48;100004.91;;;19.98;84.25
54592;BME280;40488;48.558;18.150;2022-09-06T12:32:20;100004.06;;;19.96;83.89
54592;BME280;40488;48.558;18.150;2022-09-06T12:34:50;100004.06;;;19.96;84.09
54592;BME280;40488;48.558;18.150;2022-09-06T12:37:52;100001.28;;;20.02;84.17
54592;BME280;40488;48.558;18.150;2022-09-06T12:40:23;99994.38;;;20.03;84.35
54592;BME280;40488;48.558;18.150;2022-09-06T12:42:53;99994.47;;;20.00;84.23
54592;BME280;40488;48.558;18.150;2022-09-06T12:45:23;99994.53;;;19.98;84.28
54592;BME280;40488;48.558;18.150;2022-09-06T12:48:06;99993.41;;;20.05;84.33
54592;BME280;40488;48.558;18.150;2022-09-06T12:50:36;99978.69;;;20.06;84.42
54592;BME280;40488;48.558;18.150;2022-09-06T12:53:19;99971.78;;;20.06;84.67
54592;BME280;40488;48.558;18.150;2022-09-06T12:56:03;99971.84;;;20.05;85.11
54592;BME280;40488;48.558;18.150;2022-09-06T12:58:32;99967.50;;;20.05;84.99
54592;BME280;40488;48.558;18.150;2022-09-06T13:01:03;99964.00;;;20.06;85.17
54592;BME280;40488;48.558;18.150;2022-09-06T13:03:36;99969.19;;;20.06;85.22
54592;BME280;40488;48.558;18.150;2022-09-06T13:06:07;99976.38;;;19.98;85.37
54592;BME280;40488;48.558;18.150;2022-09-06T13:08:44;99962.84;;;19.90;85.38
54592;BME280;40488;48.558;18.150;2022-09-06T13:11:19;99950.94;;;19.85;85.44
54592;BME280;40488;48.558;18.150;2022-09-06T13:13:52;99955.47;;;19.78;85.28
54592;BME280;40488;48.558;18.150;2022-09-06T13:16:24;99946.22;;;19.71;84.83
54592;BME280;40488;48.558;18.150;2022-09-06T13:18:53;99958.16;;;19.75;84.79
54592;BME280;40488;48.558;18.150;2022-09-06T13:21:25;99949.59;;;19.73;84.71
54592;BME280;40488;48.558;18.150;2022-09-06T13:23:57;99942.63;;;19.75;84.75
54592;BME280;40488;48.558;18.150;2022-09-06T13:26:35;99939.94;;;19.78;84.78
54592;BME280;40488;48.558;18.150;2022-09-06T13:29:09;99944.22;;;19.79;84.54
54592;BME280;40488;48.558;18.150;2022-09-06T13:31:43;99926.34;;;19.72;84.46
54592;BME280;40488;48.558;18.150;2022-09-06T13:34:19;99923.16;;;19.64;84.23
54592;BME280;40488;48.558;18.150;2022-09-06T13:36:50;99922.44;;;19.60;83.98
54592;BME280;40488;48.558;18.150;2022-09-06T13:39:33;99929.38;;;19.58;84.09
54592;BME280;40488;48.558;18.150;2022-09-06T13:42:05;99918.09;;;19.61;84.29
54592;BME280;40488;48.558;18.150;2022-09-06T13:44:36;99912.13;;;19.59;84.43